Time;durP1;ratioP1;P1;durP2;ratioP2;P2;SDS_P1;SDS_P2;PMS_P1;PMS_P2;Temp;Humidity;BMP_temperature;BMP_pressure;BME280_temperature;BME280_humidity;BME280_pressure;Samples;Min_cycle;Max_cycle;Signal;HPM_P1;HPM_P2
2024/01/25 00:01:37;;;;;;;1.53;1.17;;;;;;;-143.84;64.05;45245.19;5071857;28;20430;-57
2024/01/25 00:04:04;;;;;;;0.80;0.50;;;;;;;-143.84;64.07;45241.41;5071871;28;20485;-56
2024/01/25 00:06:31;;;;;;;2.10;0.97;;;;;;;-143.84;64.31;45205.22;5071678;28;20440;-56
2024/01/25 00:09:00;;;;;;;2.63;1.13;;;;;;;-143.84;64.39;45201.41;5071984;28;20445;-57
2024/01/25 00:11:31;;;;;;;2.13;1.63;;;;;;;-143.84;64.59;45205.22;5071745;28;20898;-56
2024/01/25 00:13:58;;;;;;;0.80;0.57;;;;;;;-143.84;64.31;45233.78;5071632;28;20490;-56
2024/01/25 00:16:25;;;;;;;1.20;0.90;;;;;;;-143.84;64.39;45222.34;5071418;28;20521;-57
2024/01/25 00:18:52;;;;;;;1.10;1.00;;;;;;;-143.84;64.17;45233.78;5071646;28;20848;-56
2024/01/25 00:21:20;;;;;;;0.80;0.50;;;;;;;-143.84;63.80;45216.63;5071456;28;20494;-56
2024/01/25 00:23:47;;;;;;;0.90;0.80;;;;;;;-143.84;64.24;45212.84;5071476;28;20817;-56
2024/01/25 00:26:15;;;;;;;0.93;0.83;;;;;;;-143.84;64.48;45216.63;5071335;28;20442;-56
2024/01/25 00:28:42;;;;;;;0.80;0.57;;;;;;;-143.84;64.15;45212.84;5071194;28;20447;-57
2024/01/25 00:31:10;;;;;;;2.03;1.27;;;;;;;-143.84;64.48;45226.16;5071204;28;20871;-56
2024/01/25 00:33:37;;;;;;;2.03;1.83;;;;;;;-143.84;64.36;45220.44;5071357;28;20550;-56
2024/01/25 00:36:04;;;;;;;1.00;0.90;;;;;;;-143.84;64.87;45193.78;5070992;28;20494;-56
2024/01/25 00:38:32;;;;;;;0.80;0.53;;;;;;;-143.84;64.72;45220.44;5071237;28;20985;-57
2024/01/25 00:41:00;;;;;;;1.87;1.13;;;;;;;-143.84;64.77;45205.22;5070978;28;20440;-56
2024/01/25 00:43:29;;;;;;;2.90;1.53;;;;;;;-143.84;64.74;45220.44;5071179;28;20442;-56
2024/01/25 00:45:57;;;;;;;1.23;1.13;;;;;;;-143.84;64.48;45226.16;5070951;28;20448;-56
2024/01/25 00:48:25;;;;;;;0.80;0.50;;;;;;;-143.84;64.18;45218.53;5071080;28;20507;-56
2024/01/25 00:50:52;;;;;;;0.80;0.67;;;;;;;-143.84;64.30;45229.97;5070251;28;20503;-56
2024/01/25 00:53:20;;;;;;;1.07;0.60;;;;;;;-143.84;64.22;45226.16;5070497;28;20480;-57
2024/01/25 00:55:47;;;;;;;0.80;0.50;;;;;;;-143.84;64.22;45212.84;5071129;28;20887;-56
2024/01/25 00:58:15;;;;;;;1.07;0.97;;;;;;;-143.84;63.94;45210.94;5070738;28;20456;-57
2024/01/25 01:00:44;;;;;;;0.80;0.50;;;;;;;-143.84;64.02;45231.88;5071033;28;20435;-56
2024/01/25 01:03:13;;;;;;;1.43;1.33;;;;;;;-143.84;63.86;45229.97;5070548;28;20457;-57
2024/01/25 01:05:40;;;;;;;1.30;1.20;;;;;;;-143.84;63.76;45195.69;5070686;28;20487;-56
2024/01/25 01:08:09;;;;;;;4.23;3.03;;;;;;;-143.84;63.58;45228.06;5070471;28;20500;-56
2024/01/25 01:10:36;;;;;;;1.10;1.00;;;;;;;-143.84;63.88;45195.69;5070526;28;20491;-56
2024/01/25 01:13:03;;;;;;;8.10;2.30;;;;;;;-143.84;63.96;45212.84;5069927;28;21055;-57
2024/01/25 01:15:30;;;;;;;0.80;0.70;;;;;;;-143.84;63.79;45209.03;5070490;28;20969;-56
2024/01/25 01:17:58;;;;;;;1.00;0.90;;;;;;;-143.84;63.82;45237.59;5070444;28;20499;-56
2024/01/25 01:20:25;;;;;;;0.80;0.70;;;;;;;-143.84;64.03;45218.53;5073559;28;20441;-56
2024/01/25 01:22:53;;;;;;;0.90;0.77;;;;;;;-143.84;64.11;45220.44;5090589;28;20446;-56
2024/01/25 01:25:20;;;;;;;0.80;0.50;;;;;;;-143.84;64.25;45216.63;5090627;28;20450;-56
2024/01/25 01:27:47;;;;;;;0.90;0.60;;;;;;;-143.84;64.19;45216.63;5090650;28;20550;-56
2024/01/25 01:30:14;;;;;;;0.80;0.50;;;;;;;-143.84;64.53;45237.59;5090606;28;20504;-56
2024/01/25 01:32:41;;;;;;;0.80;0.50;;;;;;;-143.84;64.74;45214.72;5072144;28;20446;-56
2024/01/25 01:35:10;;;;;;;0.80;0.50;;;;;;;-143.84;64.20;45247.09;5070184;28;21384;-56
2024/01/25 01:37:37;;;;;;;0.80;0.50;;;;;;;-143.84;64.28;45197.59;5069846;28;20449;-57
2024/01/25 01:40:05;;;;;;;0.97;0.87;;;;;;;-143.84;64.54;45205.22;5069756;28;20445;-56
2024/01/25 01:42:33;;;;;;;3.63;1.50;;;;;;;-143.84;64.52;45222.34;5069779;28;20951;-57
2024/01/25 01:45:00;;;;;;;1.70;1.60;;;;;;;-143.84;64.17;45231.88;5069946;28;21131;-56
2024/01/25 01:47:28;;;;;;;0.80;0.60;;;;;;;-143.84;64.20;45205.22;5070184;28;20446;-56
2024/01/25 01:49:55;;;;;;;1.10;0.83;;;;;;;-143.84;64.18;45201.41;5069871;28;21026;-56
2024/01/25 01:52:23;;;;;;;0.80;0.60;;;;;;;-143.84;64.45;45207.13;5069818;28;20486;-56
2024/01/25 01:54:52;;;;;;;0.80;0.50;;;;;;;-143.84;64.31;45233.78;5069463;28;20481;-56
2024/01/25 01:57:19;;;;;;;1.30;1.03;;;;;;;-143.84;64.40;45197.59;5070109;28;20441;-56
2024/01/25 01:59:48;;;;;;;0.80;0.60;;;;;;;-143.84;64.09;45203.31;5069970;28;20438;-56
2024/01/25 02:02:16;;;;;;;0.80;0.70;;;;;;;-143.84;63.86;45231.88;5068930;28;20524;-57
2024/01/25 02:04:44;;;;;;;1.00;0.70;;;;;;;-143.84;63.68;45214.72;5069654;28;20825;-56
2024/01/25 02:07:12;;;;;;;0.80;0.50;;;;;;;-143.84;63.11;45216.63;5069206;28;20441;-56
2024/01/25 02:09:40;;;;;;;1.37;0.70;;;;;;;-143.84;62.86;45231.88;5069732;28;20925;-56
2024/01/25 02:12:08;;;;;;;2.13;1.80;;;;;;;-143.84;62.26;45201.41;5069354;28;21127;-56
2024/01/25 02:14:35;;;;;;;0.80;0.50;;;;;;;-143.84;62.42;45195.69;5069493;28;20487;-56
2024/01/25 02:17:02;;;;;;;1.17;0.77;;;;;;;-143.84;62.16;45209.03;5068926;28;21009;-56
2024/01/25 02:19:29;;;;;;;3.00;2.30;;;;;;;-143.84;61.90;45186.16;5068614;28;20431;-56
2024/01/25 02:21:59;;;;;;;0.80;0.50;;;;;;;-143.84;61.05;45212.84;5068749;28;20442;-56
2024/01/25 02:24:28;;;;;;;0.80;0.77;;;;;;;-143.84;59.92;45193.78;5068600;28;20458;-57
2024/01/25 02:26:55;;;;;;;0.80;0.50;;;;;;;-143.84;59.43;45191.88;5069428;28;20508;-57
2024/01/25 02:29:22;;;;;;;1.33;0.97;;;;;;;-143.84;58.99;45209.03;5069112;28;20431;-57
2024/01/25 02:31:49;;;;;;;1.40;1.30;;;;;;;-143.84;59.47;45203.31;5069207;28;20466;-56
2024/01/25 02:34:17;;;;;;;1.20;0.80;;;;;;;-143.84;59.13;45231.88;5069219;28;20992;-57
2024/01/25 02:36:44;;;;;;;0.80;0.40;;;;;;;-143.84;59.45;45195.69;5069381;28;20439;-56
2024/01/25 02:39:11;;;;;;;2.40;1.37;;;;;;;-143.84;59.28;45197.59;5069308;28;20512;-57
2024/01/25 02:41:39;;;;;;;1.30;1.20;;;;;;;-143.84;59.66;45216.63;5069629;28;20447;-56
2024/01/25 02:44:07;;;;;;;0.80;0.50;;;;;;;-143.84;59.20;45199.50;5069219;28;20450;-56
2024/01/25 02:46:34;;;;;;;0.80;0.60;;;;;;;-143.84;59.44;45199.50;5069138;28;20434;-57
2024/01/25 02:49:01;;;;;;;0.80;0.50;;;;;;;-143.84;59.15;45195.69;5069103;28;20493;-56
2024/01/25 02:51:29;;;;;;;0.90;0.80;;;;;;;-143.84;59.20;45197.59;5069135;28;20446;-56
2024/01/25 02:53:56;;;;;;;0.93;0.70;;;;;;;-143.84;59.13;45186.16;5068709;28;20486;-57
2024/01/25 02:56:23;;;;;;;1.37;0.80;;;;;;;-143.84;59.39;45214.72;5069320;28;20497;-56
2024/01/25 02:58:51;;;;;;;1.13;1.03;;;;;;;-143.84;59.51;45209.03;5068975;28;20489;-56
2024/01/25 03:01:18;;;;;;;0.80;0.60;;;;;;;-143.84;59.32;45174.75;5068704;28;20439;-56
2024/01/25 03:03:45;;;;;;;0.80;0.50;;;;;;;-143.84;59.53;45197.59;5069254;28;20488;-57
2024/01/25 03:06:13;;;;;;;0.90;0.77;;;;;;;-143.84;59.36;45199.50;5069008;28;20510;-56
2024/01/25 03:08:40;;;;;;;2.00;1.10;;;;;;;-143.84;58.76;45199.50;5068884;28;20508;-57
2024/01/25 03:11:07;;;;;;;1.43;1.00;;;;;;;-143.84;58.65;45195.69;5068802;28;20491;-57
2024/01/25 03:13:34;;;;;;;0.80;0.50;;;;;;;-143.84;58.59;45203.31;5070534;28;20464;-57
2024/01/25 03:16:02;;;;;;;0.80;0.60;;;;;;;-143.84;57.65;45201.41;5072686;28;20467;-56
2024/01/25 03:18:29;;;;;;;0.80;0.50;;;;;;;-143.84;57.04;45188.06;5072605;28;20449;-57
2024/01/25 03:20:56;;;;;;;0.90;0.80;;;;;;;-143.84;55.77;45197.59;5072669;28;20436;-56
2024/01/25 03:23:24;;;;;;;0.80;0.57;;;;;;;-143.84;55.97;45203.31;5072514;28;20501;-57
2024/01/25 03:25:51;;;;;;;1.73;1.53;;;;;;;-143.84;54.59;45210.94;5072399;28;20440;-57
2024/01/25 03:28:18;;;;;;;0.90;0.80;;;;;;;-143.84;53.83;45193.78;5072458;28;20439;-56
2024/01/25 03:30:45;;;;;;;0.80;0.70;;;;;;;-143.84;52.99;45197.59;5074103;28;20440;-56
2024/01/25 03:33:14;;;;;;;0.80;0.50;;;;;;;-143.84;51.10;45203.31;5072437;28;20514;-56
2024/01/25 03:35:41;;;;;;;0.80;0.40;;;;;;;-143.84;50.96;45193.78;5072256;28;20443;-57
2024/01/25 03:38:08;;;;;;;0.80;0.50;;;;;;;-143.84;49.89;45176.66;5072208;28;20939;-56
2024/01/25 03:40:35;;;;;;;2.40;1.27;;;;;;;-143.84;49.60;45188.06;5072287;28;20444;-56
2024/01/25 03:43:02;;;;;;;0.80;0.50;;;;;;;-143.84;48.99;45191.88;5072327;28;20484;-56
2024/01/25 03:45:30;;;;;;;0.80;0.50;;;;;;;-143.84;48.90;45205.22;5071993;28;20429;-56
2024/01/25 03:47:57;;;;;;;1.03;0.93;;;;;;;-143.84;48.54;45182.38;5072050;28;20436;-57
2024/01/25 03:50:25;;;;;;;0.80;0.50;;;;;;;-143.84;48.33;45214.72;5072381;28;20788;-56
2024/01/25 03:52:52;;;;;;;2.87;1.23;;;;;;;-143.84;48.18;45188.06;5072251;28;20448;-56
2024/01/25 03:55:19;;;;;;;0.80;0.60;;;;;;;-143.84;48.23;45214.72;5072108;28;20468;-57
2024/01/25 03:57:46;;;;;;;0.80;0.60;;;;;;;-143.84;48.08;45163.31;5071798;28;20448;-56
2024/01/25 04:00:14;;;;;;;0.80;0.50;;;;;;;-143.84;47.90;45210.94;5072127;28;20518;-56
2024/01/25 04:02:41;;;;;;;0.80;0.60;;;;;;;-143.84;47.97;45188.06;5071971;28;20448;-56
2024/01/25 04:05:09;;;;;;;0.90;0.60;;;;;;;-143.84;47.74;45186.16;5071811;28;20494;-57
2024/01/25 04:07:37;;;;;;;0.80;0.40;;;;;;;-143.84;48.22;45205.22;5071498;28;20437;-56
2024/01/25 04:10:05;;;;;;;2.10;0.60;;;;;;;-143.84;47.70;45189.97;5071528;28;20920;-56
2024/01/25 04:12:33;;;;;;;0.90;0.70;;;;;;;-143.84;48.08;45220.44;5081840;28;20472;-57
2024/01/25 04:15:00;;;;;;;0.93;0.80;;;;;;;-143.84;47.92;45186.16;5081294;28;20479;-56
2024/01/25 04:17:27;;;;;;;20.97;0.87;;;;;;;-143.84;48.14;45203.31;5071595;28;20440;-57
2024/01/25 04:19:54;;;;;;;0.80;0.40;;;;;;;-143.84;48.02;45180.47;5071422;28;20436;-57
2024/01/25 04:22:21;;;;;;;1.27;1.17;;;;;;;-143.84;47.91;45199.50;5071495;28;20448;-56
2024/01/25 04:24:50;;;;;;;0.90;0.60;;;;;;;-143.84;48.20;45184.25;5070529;28;20449;-56
2024/01/25 04:27:18;;;;;;;2.73;0.80;;;;;;;-143.84;48.07;45201.41;5084997;28;20511;-57
2024/01/25 04:29:46;;;;;;;0.80;0.70;;;;;;;-143.84;48.10;45167.13;5091383;28;20446;-56
2024/01/25 04:32:13;;;;;;;2.07;1.47;;;;;;;-143.84;48.68;45186.16;5077290;28;20452;-56
2024/01/25 04:34:41;;;;;;;0.80;0.40;;;;;;;-143.84;48.83;45205.22;5071655;28;20473;-56
2024/01/25 04:37:08;;;;;;;0.80;0.40;;;;;;;-143.84;49.08;45193.78;5071520;28;21136;-56
2024/01/25 04:39:35;;;;;;;0.80;0.50;;;;;;;-143.84;49.69;45163.31;5071402;28;20429;-57
2024/01/25 04:42:04;;;;;;;0.80;0.40;;;;;;;-143.84;49.34;45199.50;5071693;28;21356;-56
2024/01/25 04:44:31;;;;;;;0.80;0.40;;;;;;;-143.84;50.09;45184.25;5071511;28;20502;-56
2024/01/25 04:46:58;;;;;;;1.20;1.10;;;;;;;-143.84;50.25;45176.66;5070744;28;20864;-56
2024/01/25 04:49:25;;;;;;;0.83;0.57;;;;;;;-143.84;50.06;45203.31;5071079;28;20498;-56
2024/01/25 04:51:52;;;;;;;0.80;0.50;;;;;;;-143.84;50.70;45193.78;5071082;28;20437;-56
2024/01/25 04:54:19;;;;;;;1.30;1.20;;;;;;;-143.84;50.36;45186.16;5069088;28;20483;-56
2024/01/25 04:56:46;;;;;;;1.03;0.93;;;;;;;-143.84;50.78;45214.72;5071177;28;21168;-56
2024/01/25 04:59:15;;;;;;;0.80;0.70;;;;;;;-143.84;51.32;45176.66;5071154;28;20514;-57
2024/01/25 05:01:42;;;;;;;0.80;0.50;;;;;;;-143.84;51.42;45203.31;5070682;28;20953;-57
2024/01/25 05:04:09;;;;;;;1.13;0.63;;;;;;;-143.84;52.33;45201.41;5070900;28;20436;-57
2024/01/25 05:06:36;;;;;;;0.80;0.53;;;;;;;-143.84;53.22;45214.72;5070635;28;20505;-57
2024/01/25 05:09:04;;;;;;;1.17;1.07;;;;;;;-143.84;53.69;45205.22;5070619;28;20519;-57
2024/01/25 05:11:31;;;;;;;1.33;0.93;;;;;;;-143.84;53.74;45195.69;5070392;28;20484;-57
2024/01/25 05:13:58;;;;;;;0.80;0.60;;;;;;;-143.84;54.58;45197.59;5070632;28;20526;-56
2024/01/25 05:16:26;;;;;;;2.20;1.33;;;;;;;-143.84;55.29;45174.75;5070539;28;20448;-56
2024/01/25 05:18:53;;;;;;;2.30;0.93;;;;;;;-143.84;55.68;45214.72;5071620;28;20445;-56
2024/01/25 05:21:20;;;;;;;1.27;0.97;;;;;;;-143.84;56.15;45186.16;5070615;28;20566;-56
2024/01/25 05:23:47;;;;;;;0.80;0.40;;;;;;;-143.84;56.50;45209.03;5070478;28;20882;-57
2024/01/25 05:26:15;;;;;;;0.80;0.50;;;;;;;-143.84;57.31;45199.50;5070073;28;20440;-57
2024/01/25 05:28:42;;;;;;;0.80;0.50;;;;;;;-143.84;56.83;45197.59;5070139;28;20437;-57
2024/01/25 05:31:12;;;;;;;0.80;0.53;;;;;;;-143.84;57.69;45199.50;5070142;28;20821;-57
2024/01/25 05:33:40;;;;;;;1.77;1.60;;;;;;;-143.84;58.19;45203.31;5073113;28;20441;-57
2024/01/25 05:36:08;;;;;;;0.80;0.60;;;;;;;-143.84;59.18;45174.75;5089742;28;20440;-57
2024/01/25 05:38:35;;;;;;;0.90;0.77;;;;;;;-143.84;59.27;45186.16;5090392;28;20478;-56
2024/01/25 05:41:03;;;;;;;1.27;1.17;;;;;;;-143.84;59.80;45207.13;5090237;28;21136;-57
2024/01/25 05:43:30;;;;;;;1.00;0.90;;;;;;;-143.84;60.00;45209.03;5090134;28;20442;-57
2024/01/25 05:45:57;;;;;;;0.80;0.50;;;;;;;-143.84;60.43;45209.03;5090193;28;20527;-57
2024/01/25 05:48:24;;;;;;;0.80;0.50;;;;;;;-143.84;60.93;45189.97;5089623;28;20438;-56
2024/01/25 05:50:53;;;;;;;1.00;0.73;;;;;;;-143.84;61.26;45197.59;5079511;28;20449;-57
2024/01/25 05:53:21;;;;;;;1.53;1.17;;;;;;;-143.84;62.15;45209.03;5077144;28;20542;-57
2024/01/25 05:55:48;;;;;;;0.80;0.60;;;;;;;-143.84;62.91;45195.69;5070144;28;20490;-57
2024/01/25 05:58:15;;;;;;;1.00;0.70;;;;;;;-143.84;63.58;45209.03;5070099;28;20436;-57
2024/01/25 06:00:43;;;;;;;0.80;0.50;;;;;;;-143.84;63.74;45180.47;5069721;28;20444;-57
2024/01/25 06:03:10;;;;;;;0.80;0.70;;;;;;;-143.84;64.69;45205.22;5070054;28;20451;-57
2024/01/25 06:05:38;;;;;;;0.80;0.50;;;;;;;-143.84;65.40;45207.13;5069793;28;20448;-56
2024/01/25 06:08:07;;;;;;;0.87;0.73;;;;;;;-143.84;66.10;45216.63;5069840;28;20849;-56
2024/01/25 06:10:34;;;;;;;1.83;1.10;;;;;;;-143.84;66.48;45205.22;5069506;28;20500;-57
2024/01/25 06:13:01;;;;;;;1.10;0.60;;;;;;;-143.84;66.54;45224.25;5069745;28;20545;-57
2024/01/25 06:15:28;;;;;;;1.37;1.03;;;;;;;-143.84;66.91;45210.94;5069775;28;20486;-57
2024/01/25 06:17:56;;;;;;;3.63;1.50;;;;;;;-143.84;66.84;45188.06;5069779;28;20431;-56
2024/01/25 06:20:23;;;;;;;1.13;1.00;;;;;;;-143.84;67.04;45218.53;5070348;28;21282;-57
2024/01/25 06:22:50;;;;;;;0.80;0.70;;;;;;;-143.84;67.27;45195.69;5069771;28;20445;-57
2024/01/25 06:25:19;;;;;;;0.80;0.70;;;;;;;-143.84;67.43;45169.03;5069591;28;20471;-57
2024/01/25 06:27:46;;;;;;;1.30;1.20;;;;;;;-143.84;67.72;45226.16;5069563;28;20939;-57
2024/01/25 06:30:14;;;;;;;0.80;0.50;;;;;;;-143.84;67.89;45193.78;5069592;28;20446;-58
2024/01/25 06:32:41;;;;;;;1.67;1.03;;;;;;;-143.84;67.29;45178.56;5069496;28;20451;-57
2024/01/25 06:35:09;;;;;;;0.80;0.73;;;;;;;-143.84;67.18;45201.41;5069325;28;20492;-57
2024/01/25 06:37:36;;;;;;;0.90;0.80;;;;;;;-143.84;67.38;45205.22;5069511;28;20444;-57
2024/01/25 06:40:04;;;;;;;0.80;0.60;;;;;;;-143.84;67.35;45189.97;5069158;28;20502;-57
2024/01/25 06:42:33;;;;;;;0.80;0.50;;;;;;;-143.84;67.88;45197.59;5069518;28;20455;-57
2024/01/25 06:45:00;;;;;;;1.30;1.00;;;;;;;-143.84;67.98;45218.53;5069630;28;20499;-56
2024/01/25 06:47:27;;;;;;;1.23;0.80;;;;;;;-143.84;68.29;45235.69;5069276;28;20449;-57
2024/01/25 06:49:54;;;;;;;0.80;0.50;;;;;;;-143.84;68.71;45197.59;5072985;28;20458;-57
2024/01/25 06:52:22;;;;;;;2.03;0.80;;;;;;;-143.84;68.43;45220.44;5073360;28;20433;-57
2024/01/25 06:54:49;;;;;;;1.10;1.00;;;;;;;-143.84;68.16;45178.56;5073438;28;20553;-57
2024/01/25 06:57:16;;;;;;;3.37;1.43;;;;;;;-143.84;67.24;45178.56;5073408;28;20497;-57
2024/01/25 06:59:45;;;;;;;0.80;0.60;;;;;;;-143.84;66.41;45195.69;5073222;28;20444;-57
2024/01/25 07:02:12;;;;;;;1.47;1.37;;;;;;;-143.84;65.73;45210.94;5073246;28;20452;-57
2024/01/25 07:04:40;;;;;;;0.80;0.50;;;;;;;-143.84;65.44;45207.13;5073094;28;20444;-57
2024/01/25 07:07:07;;;;;;;0.83;0.67;;;;;;;-143.84;64.92;45193.78;5072883;28;20440;-57
2024/01/25 07:09:34;;;;;;;0.80;0.50;;;;;;;-143.84;64.65;45189.97;5073378;28;20821;-57
2024/01/25 07:12:01;;;;;;;2.40;1.90;;;;;;;-143.84;65.13;45180.47;5072880;28;20488;-57
2024/01/25 07:14:28;;;;;;;0.80;0.70;;;;;;;-143.84;64.37;45220.44;5072764;28;20437;-56
2024/01/25 07:16:57;;;;;;;1.07;1.00;;;;;;;-143.84;63.91;45170.94;5072876;28;20847;-57
2024/01/25 07:19:24;;;;;;;1.90;0.87;;;;;;;-143.84;63.08;45188.06;5073214;28;20444;-58
2024/01/25 07:21:52;;;;;;;0.90;0.80;;;;;;;-143.84;61.86;45178.56;5073018;28;20820;-57
2024/01/25 07:24:19;;;;;;;1.10;1.00;;;;;;;-143.84;61.80;45178.56;5072862;28;20441;-57
2024/01/25 07:26:46;;;;;;;1.93;1.17;;;;;;;-143.84;61.20;45148.09;5072717;28;20441;-58
2024/01/25 07:29:13;;;;;;;0.87;0.67;;;;;;;-143.84;60.71;45186.16;5072378;28;20440;-56
2024/01/25 07:31:40;;;;;;;1.77;1.07;;;;;;;-143.84;60.13;45170.94;5072099;28;20432;-57
2024/01/25 07:34:09;;;;;;;0.80;0.60;;;;;;;-143.84;59.69;45178.56;5072422;28;20436;-56
2024/01/25 07:36:35;;;;;;;1.43;0.60;;;;;;;-143.84;59.33;45199.50;5072098;28;20545;-57
2024/01/25 07:39:02;;;;;;;0.90;0.67;;;;;;;-143.84;58.59;45169.03;5072639;28;20796;-56
2024/01/25 07:41:29;;;;;;;0.93;0.73;;;;;;;-143.84;58.55;45178.56;5072183;28;20437;-57
2024/01/25 07:43:56;;;;;;;0.87;0.70;;;;;;;-143.84;58.14;45167.13;5072110;28;20436;-57
2024/01/25 07:46:24;;;;;;;3.30;2.33;;;;;;;-143.84;57.48;45199.50;5072221;28;20445;-56
2024/01/25 07:48:52;;;;;;;0.90;0.77;;;;;;;-143.84;56.15;45159.50;5072182;28;20433;-56
2024/01/25 07:51:20;;;;;;;0.80;0.50;;;;;;;-143.84;54.85;45174.75;5071571;28;20498;-56
2024/01/25 07:53:47;;;;;;;0.83;0.67;;;;;;;-143.84;53.89;45184.25;5072211;28;20441;-57
2024/01/25 07:56:14;;;;;;;0.90;0.60;;;;;;;-143.84;52.89;45155.69;5071977;28;20484;-56
2024/01/25 07:58:42;;;;;;;0.83;0.67;;;;;;;-143.84;51.97;45159.50;5071865;28;20922;-57
2024/01/25 08:01:09;;;;;;;2.60;1.40;;;;;;;-143.84;51.25;45150.00;5070756;28;20441;-57
2024/01/25 08:03:36;;;;;;;1.33;1.23;;;;;;;-143.84;50.55;45170.94;5071690;28;20498;-55
2024/01/25 08:06:04;;;;;;;4.90;3.53;;;;;;;-143.84;50.66;45155.69;5071904;28;20460;-54
2024/01/25 08:08:33;;;;;;;2.63;1.40;;;;;;;-143.84;49.13;45155.69;5071561;28;20784;-54
2024/01/25 08:11:00;;;;;;;3.70;1.60;;;;;;;-143.84;48.32;45150.00;5071898;28;20475;-54
2024/01/25 08:13:28;;;;;;;0.80;0.50;;;;;;;-143.84;48.34;45130.94;5071688;28;20441;-55
2024/01/25 08:15:55;;;;;;;1.83;1.73;;;;;;;-143.84;47.07;45140.47;5071908;28;20538;-55
2024/01/25 08:18:22;;;;;;;0.80;0.57;;;;;;;-143.84;45.66;45136.66;5071744;28;20490;-54
2024/01/25 08:20:50;;;;;;;1.13;0.40;;;;;;;-143.84;45.52;45129.03;5071397;28;20949;-54
2024/01/25 08:23:18;;;;;;;5.47;1.47;;;;;;;-143.84;44.91;45104.28;5071463;28;20444;-53
2024/01/25 08:25:47;;;;;;;1.40;1.10;;;;;;;-143.84;45.21;45151.91;5071287;28;20437;-52
2024/01/25 08:28:14;;;;;;;0.90;0.70;;;;;;;-143.84;44.08;45142.38;5071253;28;20447;-53
2024/01/25 08:30:41;;;;;;;1.30;1.00;;;;;;;-143.84;44.11;45130.94;5071116;28;20441;-53
2024/01/25 08:33:08;;;;;;;1.27;1.00;;;;;;;-143.84;44.26;45130.94;5071352;28;20864;-54
2024/01/25 08:35:36;;;;;;;1.30;1.20;;;;;;;-143.84;44.33;45142.38;5071037;28;20480;-54
2024/01/25 08:38:03;;;;;;;1.40;1.17;;;;;;;-143.84;44.51;45150.00;5071051;28;20498;-54
2024/01/25 08:40:31;;;;;;;1.17;0.63;;;;;;;-143.84;43.93;45142.38;5071003;28;20464;-54
2024/01/25 08:42:59;;;;;;;1.10;0.90;;;;;;;-143.84;43.73;45119.53;5070804;28;20433;-54
2024/01/25 08:45:26;;;;;;;1.20;1.10;;;;;;;-143.84;43.92;45138.56;5070960;28;20457;-53
2024/01/25 08:47:55;;;;;;;0.90;0.60;;;;;;;-143.84;44.13;45136.66;5070774;28;20919;-54
2024/01/25 08:50:22;;;;;;;1.67;1.10;;;;;;;-143.84;44.80;45153.81;5070594;28;20528;-53
2024/01/25 08:52:50;;;;;;;0.80;0.47;;;;;;;-143.84;46.46;45153.81;5071022;28;20437;-55
2024/01/25 08:55:17;;;;;;;0.80;0.60;;;;;;;-143.84;46.71;45148.09;5070483;28;20483;-54
2024/01/25 08:57:44;;;;;;;0.90;0.60;;;;;;;-143.84;47.68;45129.03;5070490;28;20931;-54
2024/01/25 09:00:14;;;;;;;1.03;0.93;;;;;;;-143.84;47.88;45142.38;5070893;28;20855;-53
2024/01/25 09:02:42;;;;;;;1.00;0.90;;;;;;;-143.84;46.58;45146.19;5070654;28;20457;-54
2024/01/25 09:05:09;;;;;;;1.17;0.80;;;;;;;-143.84;46.83;45140.47;5070621;28;20872;-53
2024/01/25 09:07:37;;;;;;;1.27;0.90;;;;;;;-143.84;47.09;45169.03;5070538;28;20918;-53
2024/01/25 09:10:05;;;;;;;0.93;0.83;;;;;;;-143.84;47.56;45125.22;5070388;28;20524;-53
2024/01/25 09:12:32;;;;;;;1.43;1.33;;;;;;;-143.84;47.86;45129.03;5069621;28;20480;-53
2024/01/25 09:14:59;;;;;;;3.63;2.70;;;;;;;-143.84;47.60;45157.59;5070239;28;20444;-53
2024/01/25 09:17:28;;;;;;;1.13;1.03;;;;;;;-143.84;47.20;45121.44;5070216;28;20448;-53
2024/01/25 09:19:58;;;;;;;1.73;1.53;;;;;;;-143.84;46.99;45123.34;5070462;28;20448;-53
2024/01/25 09:22:25;;;;;;;1.50;1.10;;;;;;;-143.84;46.68;45148.09;5070263;28;20445;-53
2024/01/25 09:24:54;;;;;;;2.13;1.83;;;;;;;-143.84;47.88;45165.22;5070179;28;20441;-52
2024/01/25 09:27:21;;;;;;;3.13;2.40;;;;;;;-143.84;47.96;45165.22;5070141;28;20445;-53
2024/01/25 09:29:48;;;;;;;1.77;1.57;;;;;;;-143.84;48.77;45146.19;5070210;28;20447;-53
2024/01/25 09:32:15;;;;;;;1.13;1.03;;;;;;;-143.84;49.68;45140.47;5069784;28;20453;-55
2024/01/25 09:34:44;;;;;;;6.00;0.87;;;;;;;-143.84;49.54;45157.59;5070295;28;20818;-55
2024/01/25 09:37:11;;;;;;;1.07;0.97;;;;;;;-143.84;49.10;45150.00;5070020;28;20483;-54
2024/01/25 09:39:38;;;;;;;1.00;0.70;;;;;;;-143.84;50.14;45151.91;5070261;28;20464;-53
2024/01/25 09:42:06;;;;;;;1.43;1.20;;;;;;;-143.84;50.59;45146.19;5070210;28;20441;-53
2024/01/25 09:44:33;;;;;;;1.00;0.50;;;;;;;-143.84;50.51;45161.41;5070096;28;20443;-53
2024/01/25 09:47:05;;;;;;;0.80;0.50;;;;;;;-143.84;51.32;45159.50;5069958;28;20896;-52
2024/01/25 09:49:32;;;;;;;0.90;0.63;;;;;;;-143.84;51.55;45161.41;5073173;28;20448;-60
2024/01/25 09:52:03;;;;;;;1.00;0.90;;;;;;;-143.84;52.72;45167.13;5090707;28;20804;-61
2024/01/25 09:54:33;;;;;;;0.87;0.60;;;;;;;-143.84;52.70;45123.34;5090997;28;20451;-60
2024/01/25 09:57:01;;;;;;;0.90;0.53;;;;;;;-143.84;53.89;45148.09;5091062;28;20486;-60
2024/01/25 09:59:29;;;;;;;0.90;0.77;;;;;;;-143.84;53.64;45134.75;5090962;28;20452;-61
2024/01/25 10:01:57;;;;;;;1.00;0.83;;;;;;;-143.84;53.24;45174.75;5090777;28;20435;-60
2024/01/25 10:04:24;;;;;;;0.90;0.63;;;;;;;-143.84;53.04;45134.75;5090552;28;20443;-60
2024/01/25 10:06:52;;;;;;;1.20;1.10;;;;;;;-143.84;53.40;45132.84;5090686;28;20436;-60
2024/01/25 10:09:20;;;;;;;4.53;3.03;;;;;;;-143.84;52.85;45142.38;5090590;28;20447;-60
2024/01/25 10:11:47;;;;;;;1.23;0.80;;;;;;;-143.84;53.36;45142.38;5090611;28;20479;-60
2024/01/25 10:14:15;;;;;;;0.80;0.40;;;;;;;-143.84;54.06;45180.47;5091316;28;20531;-61
2024/01/25 10:16:42;;;;;;;1.33;0.80;;;;;;;-143.84;54.59;45150.00;5090968;28;20521;-60
2024/01/25 10:19:09;;;;;;;1.27;1.17;;;;;;;-143.84;56.17;45157.59;5091000;28;20974;-61
2024/01/25 10:21:37;;;;;;;1.40;1.23;;;;;;;-143.84;55.57;45130.94;5090995;28;20436;-60
2024/01/25 10:24:07;;;;;;;1.33;1.23;;;;;;;-143.84;56.09;45172.84;5090109;28;20868;-60
2024/01/25 10:26:36;;;;;;;1.00;0.90;;;;;;;-143.84;55.28;45161.41;5090922;28;20455;-61
2024/01/25 10:29:04;;;;;;;6.93;1.17;;;;;;;-143.84;55.55;45157.59;5090875;28;20513;-60
2024/01/25 10:31:32;;;;;;;1.10;0.93;;;;;;;-143.84;52.67;45151.91;5090632;28;20436;-61
2024/01/25 10:34:00;;;;;;;0.97;0.73;;;;;;;-143.84;53.09;45150.00;5090271;28;20444;-61
2024/01/25 10:36:28;;;;;;;1.20;0.70;;;;;;;-143.84;53.46;45140.47;5090077;28;20463;-61
2024/01/25 10:38:57;;;;;;;1.00;0.80;;;;;;;-143.84;53.70;45174.75;5090397;28;20432;-60
2024/01/25 10:41:25;;;;;;;1.03;0.93;;;;;;;-143.84;53.30;45136.66;5090578;28;20424;-60
2024/01/25 10:43:54;;;;;;;1.27;1.17;;;;;;;-143.84;53.63;45142.38;5090791;28;20515;-60
2024/01/25 10:46:21;;;;;;;0.80;0.57;;;;;;;-143.84;54.01;45146.19;5090671;28;20504;-61
2024/01/25 10:48:49;;;;;;;1.77;1.47;;;;;;;-143.84;53.49;45146.19;5089795;28;20436;-61
2024/01/25 10:51:18;;;;;;;2.20;2.00;;;;;;;-143.84;53.46;45134.75;5090332;28;20940;-60
2024/01/25 10:53:46;;;;;;;0.80;0.50;;;;;;;-143.84;53.80;45146.19;5090635;28;20463;-60
2024/01/25 10:56:14;;;;;;;1.00;0.80;;;;;;;-143.84;53.15;45144.28;5090080;28;20482;-61
2024/01/25 10:58:42;;;;;;;1.73;0.97;;;;;;;-143.84;54.02;45140.47;5090633;28;20428;-60
2024/01/25 11:01:14;;;;;;;2.40;1.53;;;;;;;-143.84;55.24;45150.00;5090195;28;20432;-60
2024/01/25 11:03:41;;;;;;;2.67;1.60;;;;;;;-143.84;55.34;45142.38;5089933;28;20439;-60
2024/01/25 11:06:10;;;;;;;1.80;1.03;;;;;;;-143.84;55.74;45159.50;5090191;28;20471;-60
2024/01/25 11:08:38;;;;;;;1.33;0.90;;;;;;;-143.84;56.22;45153.81;5090268;28;20949;-60
2024/01/25 11:11:08;;;;;;;1.50;0.60;;;;;;;-143.84;56.84;45161.41;5090095;28;20484;-61
2024/01/25 11:13:35;;;;;;;4.30;1.03;;;;;;;-143.84;57.08;45132.84;5090452;28;20429;-60
2024/01/25 11:16:15;;;;;;;0.80;0.50;;;;;;;-143.84;57.25;45129.03;5090135;28;20494;-61
2024/01/25 11:18:53;;;;;;;1.23;1.13;;;;;;;-143.84;58.78;45129.03;5089394;28;20892;-61